TAP1997 LPPT-GMMN
Flight info
| Callsign | TAP1997 |
|---|---|
| Flight time | 1h 19m |
| Altitude | 39000 |
| Route | DUZOP DCT AMSEL UR722 LAKAM |
| Aircraft | A20N/M-SDE2E3FGHIRWXY/LB1 |
Departure
| Time | 2026-05-07 18:11 |
|---|---|
| Airport | Lisbon Humberto Delgado Airport (LPPT) |
Arrival
| Time | 2026-05-07 19:31 |
|---|---|
| Airport | Mohammed V International Airport (GMMN) |
| Time | Latitude | Longitude | Altitude | Speed | Heading |
|---|---|---|---|---|---|
| 2026-05-07 17:44 | 38.76451 | -9.13732 | 350 ft | 0 kts | 169° |
| 2026-05-07 17:58 | 38.76461 | -9.13734 | 359 ft | 3 kts | 169° |
| 2026-05-07 17:59 | 38.76480 | -9.13739 | 354 ft | 3 kts | 169° |
| 2026-05-07 17:59 | 38.76497 | -9.13743 | 359 ft | 3 kts | 167° |
| 2026-05-07 17:59 | 38.76515 | -9.13748 | 357 ft | 3 kts | 167° |
| 2026-05-07 17:59 | 38.76531 | -9.13751 | 352 ft | 2 kts | 211° |
| 2026-05-07 18:00 | 38.76539 | -9.13743 | 350 ft | 0 kts | 250° |
| 2026-05-07 18:01 | 38.76533 | -9.13767 | 352 ft | 7 kts | 255° |
| 2026-05-07 18:01 | 38.76518 | -9.13848 | 350 ft | 11 kts | 257° |
| 2026-05-07 18:02 | 38.76554 | -9.13937 | 357 ft | 7 kts | 331° |
| 2026-05-07 18:02 | 38.76567 | -9.13966 | 358 ft | 3 kts | 281° |
| 2026-05-07 18:02 | 38.76564 | -9.13995 | 353 ft | 4 kts | 250° |
| 2026-05-07 18:03 | 38.76541 | -9.14037 | 350 ft | 8 kts | 230° |
| 2026-05-07 18:03 | 38.76503 | -9.14095 | 352 ft | 8 kts | 237° |
| 2026-05-07 18:03 | 38.76493 | -9.14157 | 354 ft | 6 kts | 276° |
| 2026-05-07 18:03 | 38.76495 | -9.14166 | 355 ft | 0 kts | 287° |
| 2026-05-07 18:07 | 38.76499 | -9.14183 | 356 ft | 6 kts | 288° |
| 2026-05-07 18:07 | 38.76520 | -9.14254 | 351 ft | 10 kts | 292° |
| 2026-05-07 18:07 | 38.76537 | -9.14304 | 349 ft | 0 kts | 291° |
| 2026-05-07 18:09 | 38.76560 | -9.14380 | 350 ft | 17 kts | 292° |
| 2026-05-07 18:10 | 38.76598 | -9.14435 | 344 ft | 1 kts | 27° |
| 2026-05-07 18:10 | 38.76620 | -9.14404 | 343 ft | 6 kts | 30° |
| 2026-05-07 18:10 | 38.76624 | -9.14402 | 343 ft | 0 kts | 22° |
| 2026-05-07 18:10 | 38.76696 | -9.14364 | 347 ft | 41 kts | 22° |
| 2026-05-07 18:11 | 38.77179 | -9.14105 | 351 ft | 107 kts | 23° |
| 2026-05-07 18:11 | 38.77734 | -9.13807 | 351 ft | 148 kts | 22° |
| 2026-05-07 18:11 | 38.79024 | -9.12992 | 875 ft | 152 kts | 12° |
| 2026-05-07 18:11 | 38.80080 | -9.12532 | 1315 ft | 169 kts | 16° |
| 2026-05-07 18:12 | 38.81201 | -9.11853 | 1840 ft | 191 kts | 23° |
| 2026-05-07 18:12 | 38.82442 | -9.10944 | 2382 ft | 219 kts | 26° |
| 2026-05-07 18:12 | 38.83835 | -9.09847 | 2868 ft | 251 kts | 28° |
| 2026-05-07 18:12 | 38.85372 | -9.08637 | 2993 ft | 263 kts | 28° |
| 2026-05-07 18:13 | 38.86842 | -9.07216 | 3010 ft | 268 kts | 43° |
| 2026-05-07 18:13 | 38.87842 | -9.05195 | 3006 ft | 272 kts | 69° |
| 2026-05-07 18:13 | 38.88033 | -9.02789 | 3022 ft | 274 kts | 98° |
| 2026-05-07 18:13 | 38.87364 | -9.00468 | 3494 ft | 281 kts | 118° |
| 2026-05-07 18:14 | 38.86301 | -8.98433 | 4647 ft | 274 kts | 137° |
| 2026-05-07 18:14 | 38.84814 | -8.97096 | 6172 ft | 252 kts | 159° |
| 2026-05-07 18:14 | 38.83128 | -8.96667 | 7338 ft | 248 kts | 182° |
| 2026-05-07 18:14 | 38.81417 | -8.97146 | 8173 ft | 257 kts | 199° |
| 2026-05-07 18:15 | 38.79744 | -8.98026 | 9049 ft | 263 kts | 202° |
| 2026-05-07 18:15 | 38.78049 | -8.98980 | 9951 ft | 268 kts | 202° |
| 2026-05-07 18:15 | 38.76291 | -8.99962 | 10507 ft | 286 kts | 202° |
| 2026-05-07 18:15 | 38.74381 | -9.01009 | 10875 ft | 309 kts | 202° |
| 2026-05-07 18:16 | 38.72344 | -9.02112 | 11403 ft | 324 kts | 202° |
| 2026-05-07 18:16 | 38.70251 | -9.03240 | 12350 ft | 323 kts | 202° |
| 2026-05-07 18:16 | 38.68211 | -9.04337 | 13708 ft | 313 kts | 202° |
| 2026-05-07 18:16 | 38.66242 | -9.05393 | 14945 ft | 302 kts | 202° |
| 2026-05-07 18:17 | 38.64344 | -9.06409 | 16030 ft | 297 kts | 202° |
| 2026-05-07 18:17 | 38.62432 | -9.07431 | 16972 ft | 297 kts | 202° |
| 2026-05-07 18:17 | 38.60513 | -9.08456 | 17804 ft | 300 kts | 202° |
| 2026-05-07 18:17 | 38.58577 | -9.09489 | 18601 ft | 302 kts | 203° |
| 2026-05-07 18:18 | 38.56633 | -9.10526 | 19284 ft | 307 kts | 204° |
| 2026-05-07 18:18 | 38.54591 | -9.11539 | 19618 ft | 323 kts | 198° |
| 2026-05-07 18:18 | 38.52320 | -9.12072 | 19900 ft | 342 kts | 185° |
| 2026-05-07 18:18 | 38.49884 | -9.11765 | 20185 ft | 362 kts | 172° |
| 2026-05-07 18:19 | 38.47395 | -9.10905 | 20527 ft | 377 kts | 165° |
| 2026-05-07 18:19 | 38.44905 | -9.09735 | 21041 ft | 385 kts | 162° |
| 2026-05-07 18:19 | 38.42404 | -9.08412 | 21590 ft | 391 kts | 161° |
| 2026-05-07 18:19 | 38.39884 | -9.07036 | 22140 ft | 396 kts | 161° |
| 2026-05-07 18:20 | 38.37337 | -9.05656 | 22731 ft | 399 kts | 161° |
| 2026-05-07 18:20 | 38.34758 | -9.04289 | 23313 ft | 403 kts | 162° |
| 2026-05-07 18:20 | 38.32181 | -9.02954 | 23745 ft | 407 kts | 162° |
| 2026-05-07 18:20 | 38.29548 | -9.01611 | 23901 ft | 408 kts | 163° |
| 2026-05-07 18:21 | 38.26910 | -9.00279 | 23931 ft | 408 kts | 163° |
| 2026-05-07 18:21 | 38.24269 | -8.98953 | 23934 ft | 408 kts | 163° |
| 2026-05-07 18:21 | 38.21625 | -8.97629 | 23936 ft | 409 kts | 163° |
| 2026-05-07 18:21 | 38.18980 | -8.96305 | 23939 ft | 409 kts | 163° |
| 2026-05-07 18:22 | 38.16334 | -8.94982 | 23936 ft | 409 kts | 163° |
| 2026-05-07 18:22 | 38.15441 | -8.94535 | 23941 ft | 409 kts | 163° |
| 2026-05-07 18:22 | 38.11038 | -8.92333 | 23937 ft | 409 kts | 163° |
| 2026-05-07 18:22 | 38.09280 | -8.91454 | 23965 ft | 410 kts | 163° |
| 2026-05-07 18:23 | 38.06612 | -8.90122 | 24344 ft | 413 kts | 163° |
| 2026-05-07 18:23 | 38.03933 | -8.88785 | 24880 ft | 414 kts | 163° |
| 2026-05-07 18:23 | 38.00365 | -8.87007 | 25539 ft | 418 kts | 163° |
| 2026-05-07 18:23 | 37.97648 | -8.85653 | 26003 ft | 421 kts | 163° |
| 2026-05-07 18:24 | 37.95799 | -8.84733 | 26309 ft | 423 kts | 163° |
| 2026-05-07 18:24 | 37.93046 | -8.83363 | 26755 ft | 426 kts | 163° |
| 2026-05-07 18:24 | 37.90311 | -8.82003 | 27179 ft | 429 kts | 163° |
| 2026-05-07 18:24 | 37.87521 | -8.80617 | 27587 ft | 432 kts | 163° |
| 2026-05-07 18:25 | 37.84712 | -8.79222 | 28004 ft | 434 kts | 163° |
| 2026-05-07 18:25 | 37.81889 | -8.77821 | 28445 ft | 436 kts | 163° |
| 2026-05-07 18:25 | 37.79054 | -8.76415 | 28840 ft | 439 kts | 163° |
| 2026-05-07 18:25 | 37.76199 | -8.75001 | 29227 ft | 442 kts | 163° |
| 2026-05-07 18:26 | 37.73322 | -8.73578 | 29603 ft | 445 kts | 164° |
| 2026-05-07 18:26 | 37.70430 | -8.72148 | 29986 ft | 447 kts | 164° |
| 2026-05-07 18:26 | 37.67557 | -8.70728 | 30346 ft | 449 kts | 164° |
| 2026-05-07 18:26 | 37.64650 | -8.69291 | 30791 ft | 448 kts | 164° |
| 2026-05-07 18:27 | 37.61754 | -8.67859 | 31335 ft | 445 kts | 165° |
| 2026-05-07 18:27 | 37.58879 | -8.66437 | 31915 ft | 441 kts | 165° |
| 2026-05-07 18:27 | 37.56026 | -8.65029 | 32394 ft | 439 kts | 166° |
| 2026-05-07 18:27 | 37.53188 | -8.63631 | 32835 ft | 437 kts | 166° |
| 2026-05-07 18:28 | 37.50353 | -8.62239 | 33292 ft | 436 kts | 166° |
| 2026-05-07 18:28 | 37.47533 | -8.60854 | 33736 ft | 434 kts | 167° |
| 2026-05-07 18:28 | 37.44721 | -8.59475 | 34122 ft | 433 kts | 167° |
| 2026-05-07 18:28 | 37.41912 | -8.58099 | 34451 ft | 432 kts | 167° |
| 2026-05-07 18:29 | 37.39112 | -8.56728 | 34766 ft | 432 kts | 167° |
| 2026-05-07 18:29 | 37.36312 | -8.55357 | 35114 ft | 430 kts | 167° |
| 2026-05-07 18:29 | 37.33530 | -8.53994 | 35473 ft | 429 kts | 167° |
| 2026-05-07 18:29 | 37.30745 | -8.52632 | 35775 ft | 429 kts | 167° |
| 2026-05-07 18:30 | 37.27995 | -8.51289 | 36056 ft | 428 kts | 167° |
| 2026-05-07 18:30 | 37.25212 | -8.49932 | 36372 ft | 428 kts | 168° |
| 2026-05-07 18:30 | 37.22437 | -8.48580 | 36685 ft | 427 kts | 168° |
| 2026-05-07 18:30 | 37.19663 | -8.47228 | 36994 ft | 426 kts | 168° |
| 2026-05-07 18:31 | 37.16899 | -8.45882 | 37276 ft | 425 kts | 168° |
| 2026-05-07 18:31 | 37.14138 | -8.44539 | 37588 ft | 424 kts | 168° |
| 2026-05-07 18:31 | 37.11388 | -8.43201 | 37857 ft | 424 kts | 168° |
| 2026-05-07 18:31 | 37.08664 | -8.41878 | 38135 ft | 423 kts | 168° |
| 2026-05-07 18:32 | 37.05920 | -8.40546 | 38417 ft | 422 kts | 168° |
| 2026-05-07 18:32 | 37.03182 | -8.39218 | 38664 ft | 421 kts | 168° |
| 2026-05-07 18:32 | 37.00448 | -8.37893 | 38848 ft | 421 kts | 168° |
| 2026-05-07 18:33 | 36.94958 | -8.35239 | 38927 ft | 424 kts | 168° |
| 2026-05-07 18:33 | 36.89453 | -8.32579 | 38924 ft | 425 kts | 168° |
| 2026-05-07 18:34 | 36.83921 | -8.29911 | 38932 ft | 426 kts | 168° |
| 2026-05-07 18:34 | 36.78379 | -8.27238 | 38930 ft | 426 kts | 168° |
| 2026-05-07 18:35 | 36.72851 | -8.24577 | 38931 ft | 426 kts | 168° |
| 2026-05-07 18:35 | 36.67349 | -8.21934 | 38931 ft | 426 kts | 168° |
| 2026-05-07 18:36 | 36.61801 | -8.19274 | 38936 ft | 426 kts | 168° |
| 2026-05-07 18:36 | 36.56252 | -8.16617 | 38936 ft | 426 kts | 168° |
| 2026-05-07 18:37 | 36.50753 | -8.13987 | 38941 ft | 426 kts | 168° |
| 2026-05-07 18:37 | 36.45183 | -8.11328 | 38927 ft | 426 kts | 168° |
| 2026-05-07 18:38 | 36.39638 | -8.08686 | 38936 ft | 427 kts | 168° |
| 2026-05-07 18:38 | 36.34122 | -8.06060 | 38941 ft | 427 kts | 168° |
| 2026-05-07 18:39 | 36.28568 | -8.03420 | 38938 ft | 427 kts | 168° |
| 2026-05-07 18:39 | 36.23017 | -8.00786 | 38920 ft | 427 kts | 168° |
| 2026-05-07 18:40 | 36.17467 | -7.98157 | 38943 ft | 427 kts | 168° |
| 2026-05-07 18:40 | 36.11915 | -7.95531 | 38943 ft | 427 kts | 168° |
| 2026-05-07 18:41 | 36.06354 | -7.92903 | 38947 ft | 427 kts | 168° |
| 2026-05-07 18:41 | 36.00791 | -7.90279 | 38946 ft | 427 kts | 168° |
| 2026-05-07 18:42 | 35.95162 | -7.88364 | 38942 ft | 411 kts | 182° |
| 2026-05-07 18:42 | 35.89513 | -7.87752 | 38940 ft | 409 kts | 185° |
| 2026-05-07 18:43 | 35.83833 | -7.87269 | 38947 ft | 409 kts | 185° |
| 2026-05-07 18:43 | 35.78159 | -7.86797 | 38951 ft | 409 kts | 185° |
| 2026-05-07 18:44 | 35.72487 | -7.86326 | 38951 ft | 408 kts | 185° |
| 2026-05-07 18:44 | 35.66844 | -7.85859 | 38950 ft | 408 kts | 185° |
| 2026-05-07 18:45 | 35.61171 | -7.85391 | 38947 ft | 408 kts | 185° |
| 2026-05-07 18:45 | 35.55494 | -7.84922 | 38947 ft | 408 kts | 185° |
| 2026-05-07 18:46 | 35.49820 | -7.84455 | 38929 ft | 408 kts | 185° |
| 2026-05-07 18:46 | 35.44143 | -7.83988 | 38949 ft | 409 kts | 185° |
| 2026-05-07 18:47 | 35.38496 | -7.83524 | 38952 ft | 409 kts | 185° |
| 2026-05-07 18:47 | 35.32810 | -7.83058 | 38955 ft | 409 kts | 185° |
| 2026-05-07 18:48 | 35.27145 | -7.82592 | 38599 ft | 405 kts | 185° |
| 2026-05-07 18:48 | 35.24339 | -7.82361 | 38050 ft | 403 kts | 185° |
| 2026-05-07 18:48 | 35.21539 | -7.82133 | 37449 ft | 404 kts | 185° |
| 2026-05-07 18:48 | 35.18722 | -7.81905 | 36967 ft | 408 kts | 185° |
| 2026-05-07 18:49 | 35.15868 | -7.81676 | 36436 ft | 412 kts | 184° |
| 2026-05-07 18:49 | 35.12997 | -7.81443 | 35822 ft | 414 kts | 184° |
| 2026-05-07 18:49 | 35.10125 | -7.81207 | 35250 ft | 413 kts | 184° |
| 2026-05-07 18:49 | 35.07252 | -7.80972 | 34651 ft | 414 kts | 184° |
| 2026-05-07 18:50 | 35.04374 | -7.80737 | 34027 ft | 415 kts | 183° |
| 2026-05-07 18:50 | 35.01532 | -7.80506 | 33309 ft | 416 kts | 183° |
| 2026-05-07 18:50 | 34.98633 | -7.80271 | 32524 ft | 418 kts | 183° |
| 2026-05-07 18:50 | 34.95719 | -7.80034 | 31737 ft | 421 kts | 183° |
| 2026-05-07 18:51 | 34.92785 | -7.79797 | 30961 ft | 424 kts | 183° |
| 2026-05-07 18:51 | 34.89834 | -7.79557 | 30189 ft | 426 kts | 183° |
| 2026-05-07 18:51 | 34.86863 | -7.79317 | 29317 ft | 429 kts | 182° |
| 2026-05-07 18:51 | 34.83878 | -7.79075 | 28432 ft | 430 kts | 182° |
| 2026-05-07 18:52 | 34.80877 | -7.78831 | 27611 ft | 431 kts | 182° |
| 2026-05-07 18:52 | 34.77894 | -7.78588 | 26924 ft | 428 kts | 182° |
| 2026-05-07 18:52 | 34.74936 | -7.78346 | 26295 ft | 424 kts | 182° |
| 2026-05-07 18:52 | 34.72003 | -7.78107 | 25636 ft | 421 kts | 182° |
| 2026-05-07 18:53 | 34.69093 | -7.77872 | 25040 ft | 417 kts | 182° |
| 2026-05-07 18:53 | 34.66209 | -7.77638 | 24478 ft | 413 kts | 182° |
| 2026-05-07 18:53 | 34.63358 | -7.77408 | 23922 ft | 408 kts | 182° |
| 2026-05-07 18:53 | 34.60536 | -7.77181 | 23345 ft | 404 kts | 181° |
| 2026-05-07 18:54 | 34.57738 | -7.76955 | 22730 ft | 401 kts | 181° |
| 2026-05-07 18:54 | 34.54993 | -7.76736 | 22224 ft | 400 kts | 181° |
| 2026-05-07 18:54 | 34.52222 | -7.76514 | 21798 ft | 398 kts | 181° |
| 2026-05-07 18:54 | 34.49462 | -7.76293 | 21439 ft | 397 kts | 181° |
| 2026-05-07 18:55 | 34.46711 | -7.76072 | 21065 ft | 395 kts | 181° |
| 2026-05-07 18:55 | 34.43974 | -7.75853 | 20718 ft | 393 kts | 181° |
| 2026-05-07 18:55 | 34.41246 | -7.75634 | 20374 ft | 392 kts | 181° |
| 2026-05-07 18:55 | 34.38525 | -7.75417 | 20034 ft | 390 kts | 182° |
| 2026-05-07 18:56 | 34.35823 | -7.75222 | 19699 ft | 388 kts | 181° |
| 2026-05-07 18:56 | 34.33132 | -7.75011 | 19368 ft | 387 kts | 180° |
| 2026-05-07 18:56 | 34.30449 | -7.74788 | 19039 ft | 385 kts | 180° |
| 2026-05-07 18:56 | 34.27780 | -7.74569 | 18714 ft | 384 kts | 180° |
| 2026-05-07 18:57 | 34.25151 | -7.74357 | 18397 ft | 382 kts | 180° |
| 2026-05-07 18:57 | 34.22499 | -7.74145 | 18059 ft | 381 kts | 180° |
| 2026-05-07 18:57 | 34.19852 | -7.73931 | 17962 ft | 380 kts | 181° |
| 2026-05-07 18:57 | 34.17206 | -7.73703 | 17963 ft | 380 kts | 180° |
| 2026-05-07 18:58 | 34.14560 | -7.73457 | 17960 ft | 380 kts | 180° |
| 2026-05-07 18:58 | 34.11960 | -7.73246 | 17800 ft | 375 kts | 182° |
| 2026-05-07 18:58 | 34.09371 | -7.73315 | 17140 ft | 370 kts | 188° |
| 2026-05-07 18:58 | 34.06823 | -7.73600 | 16476 ft | 366 kts | 189° |
| 2026-05-07 18:59 | 34.04295 | -7.73920 | 15848 ft | 363 kts | 189° |
| 2026-05-07 18:59 | 34.01792 | -7.74247 | 15237 ft | 360 kts | 189° |
| 2026-05-07 18:59 | 33.99312 | -7.74578 | 14644 ft | 357 kts | 189° |
| 2026-05-07 18:59 | 33.96858 | -7.74916 | 14041 ft | 354 kts | 189° |
| 2026-05-07 19:00 | 33.95245 | -7.75138 | 13651 ft | 352 kts | 189° |
| 2026-05-07 19:00 | 33.92016 | -7.75587 | 12806 ft | 347 kts | 189° |
| 2026-05-07 19:00 | 33.89624 | -7.75927 | 12163 ft | 344 kts | 189° |
| 2026-05-07 19:00 | 33.87259 | -7.76269 | 11536 ft | 341 kts | 189° |
| 2026-05-07 19:01 | 33.84906 | -7.76612 | 11104 ft | 339 kts | 189° |
| 2026-05-07 19:01 | 33.82564 | -7.76955 | 10970 ft | 339 kts | 189° |
| 2026-05-07 19:01 | 33.80224 | -7.77300 | 10953 ft | 339 kts | 189° |
| 2026-05-07 19:01 | 33.77886 | -7.77645 | 10961 ft | 338 kts | 189° |
| 2026-05-07 19:02 | 33.75584 | -7.77984 | 10949 ft | 338 kts | 189° |
| 2026-05-07 19:02 | 33.73245 | -7.78327 | 10950 ft | 338 kts | 189° |
| 2026-05-07 19:02 | 33.70911 | -7.78669 | 10949 ft | 338 kts | 189° |
| 2026-05-07 19:02 | 33.68576 | -7.79003 | 10937 ft | 337 kts | 189° |
| 2026-05-07 19:03 | 33.66271 | -7.79328 | 10639 ft | 329 kts | 189° |
| 2026-05-07 19:03 | 33.64037 | -7.79638 | 10404 ft | 316 kts | 189° |
| 2026-05-07 19:03 | 33.61892 | -7.79931 | 10204 ft | 303 kts | 189° |
| 2026-05-07 19:03 | 33.59836 | -7.80210 | 10022 ft | 291 kts | 189° |
| 2026-05-07 19:04 | 33.57857 | -7.80479 | 9846 ft | 280 kts | 189° |
| 2026-05-07 19:04 | 33.55954 | -7.80736 | 9543 ft | 272 kts | 189° |
| 2026-05-07 19:04 | 33.54081 | -7.80994 | 9098 ft | 270 kts | 189° |
| 2026-05-07 19:04 | 33.52218 | -7.81258 | 8635 ft | 269 kts | 189° |
| 2026-05-07 19:05 | 33.50390 | -7.81529 | 8193 ft | 268 kts | 189° |
| 2026-05-07 19:05 | 33.48547 | -7.81812 | 7751 ft | 267 kts | 189° |
| 2026-05-07 19:05 | 33.46706 | -7.82105 | 7307 ft | 267 kts | 189° |
| 2026-05-07 19:05 | 33.44869 | -7.82409 | 6902 ft | 265 kts | 189° |
| 2026-05-07 19:06 | 33.43046 | -7.82719 | 6516 ft | 262 kts | 189° |
| 2026-05-07 19:06 | 33.39592 | -7.83322 | 6192 ft | 240 kts | 189° |
| 2026-05-07 19:06 | 33.37948 | -7.83616 | 5893 ft | 237 kts | 189° |
| 2026-05-07 19:07 | 33.36874 | -7.83805 | 5716 ft | 234 kts | 189° |
| 2026-05-07 19:07 | 33.35258 | -7.84096 | 5342 ft | 235 kts | 189° |
| 2026-05-07 19:07 | 33.33628 | -7.84392 | 4960 ft | 238 kts | 189° |
| 2026-05-07 19:07 | 33.31988 | -7.84689 | 4609 ft | 238 kts | 189° |
| 2026-05-07 19:08 | 33.30341 | -7.84982 | 4221 ft | 240 kts | 189° |
| 2026-05-07 19:08 | 33.28673 | -7.85278 | 3805 ft | 245 kts | 189° |
| 2026-05-07 19:08 | 33.26977 | -7.85572 | 3587 ft | 246 kts | 189° |
| 2026-05-07 19:08 | 33.25281 | -7.85860 | 3577 ft | 246 kts | 189° |
| 2026-05-07 19:09 | 33.23587 | -7.86155 | 3610 ft | 247 kts | 189° |
| 2026-05-07 19:09 | 33.21889 | -7.86448 | 3612 ft | 245 kts | 189° |
| 2026-05-07 19:09 | 33.20211 | -7.86741 | 3606 ft | 240 kts | 189° |
| 2026-05-07 19:09 | 33.18631 | -7.87012 | 3601 ft | 226 kts | 189° |
| 2026-05-07 19:10 | 33.17078 | -7.87272 | 3609 ft | 224 kts | 189° |
| 2026-05-07 19:10 | 33.15530 | -7.87536 | 3611 ft | 226 kts | 189° |
| 2026-05-07 19:10 | 33.13960 | -7.87803 | 3604 ft | 229 kts | 189° |
| 2026-05-07 19:10 | 33.12380 | -7.88075 | 3612 ft | 229 kts | 189° |
| 2026-05-07 19:11 | 33.10808 | -7.88349 | 3605 ft | 227 kts | 189° |
| 2026-05-07 19:11 | 33.09244 | -7.88625 | 3607 ft | 227 kts | 189° |
| 2026-05-07 19:11 | 33.07681 | -7.88902 | 3606 ft | 226 kts | 189° |
| 2026-05-07 19:11 | 33.06128 | -7.89133 | 3607 ft | 224 kts | 180° |
| 2026-05-07 19:12 | 33.04604 | -7.88834 | 3636 ft | 222 kts | 158° |
| 2026-05-07 19:12 | 33.03398 | -7.87793 | 3603 ft | 218 kts | 124° |
| 2026-05-07 19:12 | 33.02899 | -7.86131 | 3602 ft | 213 kts | 88° |
| 2026-05-07 19:12 | 33.03241 | -7.84457 | 3602 ft | 207 kts | 63° |
| 2026-05-07 19:13 | 33.03784 | -7.82873 | 3596 ft | 209 kts | 76° |
| 2026-05-07 19:13 | 33.03616 | -7.81151 | 3601 ft | 217 kts | 112° |
| 2026-05-07 19:13 | 33.02583 | -7.79841 | 3602 ft | 221 kts | 150° |
| 2026-05-07 19:13 | 33.01128 | -7.79252 | 3614 ft | 222 kts | 166° |
| 2026-05-07 19:14 | 32.99609 | -7.78864 | 3598 ft | 225 kts | 167° |
| 2026-05-07 19:14 | 32.98060 | -7.78507 | 3603 ft | 228 kts | 168° |
| 2026-05-07 19:14 | 32.96506 | -7.78144 | 3607 ft | 225 kts | 168° |
| 2026-05-07 19:14 | 32.94973 | -7.77782 | 3606 ft | 224 kts | 168° |
| 2026-05-07 19:15 | 32.93437 | -7.77409 | 3600 ft | 227 kts | 168° |
| 2026-05-07 19:15 | 32.91908 | -7.77046 | 3598 ft | 226 kts | 168° |
| 2026-05-07 19:15 | 32.90354 | -7.76688 | 3588 ft | 229 kts | 168° |
| 2026-05-07 19:15 | 32.88786 | -7.76339 | 3602 ft | 229 kts | 168° |
| 2026-05-07 19:16 | 32.87222 | -7.75995 | 3601 ft | 230 kts | 168° |
| 2026-05-07 19:16 | 32.85658 | -7.75639 | 3603 ft | 226 kts | 168° |
| 2026-05-07 19:16 | 32.84119 | -7.75274 | 3595 ft | 224 kts | 168° |
| 2026-05-07 19:16 | 32.82590 | -7.74923 | 3601 ft | 225 kts | 169° |
| 2026-05-07 19:17 | 32.81042 | -7.74564 | 3602 ft | 228 kts | 168° |
| 2026-05-07 19:17 | 32.79508 | -7.74137 | 3595 ft | 226 kts | 159° |
| 2026-05-07 19:17 | 32.78149 | -7.73224 | 3589 ft | 224 kts | 134° |
| 2026-05-07 19:17 | 32.77333 | -7.71713 | 3585 ft | 215 kts | 100° |
| 2026-05-07 19:18 | 32.77386 | -7.70002 | 3600 ft | 205 kts | 65° |
| 2026-05-07 19:18 | 32.78216 | -7.68713 | 3601 ft | 200 kts | 32° |
| 2026-05-07 19:18 | 32.79458 | -7.67991 | 3597 ft | 200 kts | 19° |
| 2026-05-07 19:18 | 32.80777 | -7.67465 | 3590 ft | 199 kts | 17° |
| 2026-05-07 19:19 | 32.82099 | -7.66962 | 3604 ft | 198 kts | 16° |
| 2026-05-07 19:19 | 32.83410 | -7.66454 | 3599 ft | 198 kts | 17° |
| 2026-05-07 19:19 | 32.84724 | -7.65934 | 3601 ft | 200 kts | 18° |
| 2026-05-07 19:19 | 32.86035 | -7.65405 | 3599 ft | 198 kts | 17° |
| 2026-05-07 19:20 | 32.87330 | -7.64880 | 3593 ft | 196 kts | 18° |
| 2026-05-07 19:20 | 32.88614 | -7.64357 | 3596 ft | 197 kts | 18° |
| 2026-05-07 19:20 | 32.89917 | -7.63825 | 3599 ft | 198 kts | 17° |
| 2026-05-07 19:20 | 32.91218 | -7.63294 | 3608 ft | 197 kts | 18° |
| 2026-05-07 19:21 | 32.92512 | -7.62764 | 3595 ft | 196 kts | 18° |
| 2026-05-07 19:21 | 32.93814 | -7.62231 | 3596 ft | 199 kts | 18° |
| 2026-05-07 19:21 | 32.95127 | -7.61692 | 3595 ft | 199 kts | 17° |
| 2026-05-07 19:21 | 32.96436 | -7.61155 | 3597 ft | 198 kts | 16° |
| 2026-05-07 19:22 | 32.97747 | -7.60618 | 3607 ft | 200 kts | 18° |
| 2026-05-07 19:22 | 32.99069 | -7.60077 | 3607 ft | 202 kts | 18° |
| 2026-05-07 19:22 | 33.00378 | -7.59540 | 3594 ft | 200 kts | 18° |
| 2026-05-07 19:22 | 33.01691 | -7.59001 | 3592 ft | 198 kts | 18° |
| 2026-05-07 19:23 | 33.02997 | -7.58464 | 3599 ft | 198 kts | 19° |
| 2026-05-07 19:23 | 33.04309 | -7.57925 | 3615 ft | 200 kts | 18° |
| 2026-05-07 19:23 | 33.05620 | -7.57386 | 3606 ft | 199 kts | 18° |
| 2026-05-07 19:23 | 33.06924 | -7.56850 | 3604 ft | 198 kts | 19° |
| 2026-05-07 19:24 | 33.08229 | -7.56313 | 3618 ft | 199 kts | 18° |
| 2026-05-07 19:24 | 33.09531 | -7.55777 | 3600 ft | 197 kts | 18° |
| 2026-05-07 19:24 | 33.10827 | -7.55245 | 3613 ft | 192 kts | 18° |
| 2026-05-07 19:24 | 33.12033 | -7.54747 | 3606 ft | 177 kts | 18° |
| 2026-05-07 19:25 | 33.13201 | -7.54267 | 3611 ft | 179 kts | 18° |
| 2026-05-07 19:25 | 33.14378 | -7.53781 | 3609 ft | 178 kts | 18° |
| 2026-05-07 19:25 | 33.15533 | -7.53305 | 3626 ft | 178 kts | 18° |
| 2026-05-07 19:25 | 33.16710 | -7.52868 | 3613 ft | 177 kts | 10° |
| 2026-05-07 19:26 | 33.17938 | -7.52860 | 3621 ft | 178 kts | 353° |
| 2026-05-07 19:26 | 33.19146 | -7.53186 | 3616 ft | 177 kts | 347° |
| 2026-05-07 19:26 | 33.20333 | -7.53593 | 3612 ft | 178 kts | 346° |
| 2026-05-07 19:26 | 33.21513 | -7.53997 | 3484 ft | 175 kts | 346° |
| 2026-05-07 19:27 | 33.22690 | -7.54397 | 3230 ft | 176 kts | 346° |
| 2026-05-07 19:27 | 33.23859 | -7.54797 | 2985 ft | 170 kts | 346° |
| 2026-05-07 19:27 | 33.24960 | -7.55175 | 2746 ft | 159 kts | 347° |
| 2026-05-07 19:27 | 33.25988 | -7.55528 | 2532 ft | 148 kts | 347° |
| 2026-05-07 19:28 | 33.26941 | -7.55854 | 2340 ft | 137 kts | 348° |
| 2026-05-07 19:28 | 33.27839 | -7.56161 | 2165 ft | 131 kts | 347° |
| 2026-05-07 19:28 | 33.28714 | -7.56460 | 1999 ft | 132 kts | 348° |
| 2026-05-07 19:28 | 33.29602 | -7.56763 | 1828 ft | 130 kts | 347° |
| 2026-05-07 19:29 | 33.30441 | -7.57051 | 1663 ft | 122 kts | 347° |
| 2026-05-07 19:29 | 33.31224 | -7.57325 | 1424 ft | 116 kts | 347° |
| 2026-05-07 19:29 | 33.32002 | -7.57613 | 1362 ft | 119 kts | 345° |
| 2026-05-07 19:29 | 33.32794 | -7.57902 | 1170 ft | 118 kts | 347° |
| 2026-05-07 19:30 | 33.33585 | -7.58156 | 1054 ft | 118 kts | 348° |
| 2026-05-07 19:30 | 33.34382 | -7.58400 | 881 ft | 117 kts | 347° |
| 2026-05-07 19:30 | 33.35151 | -7.58672 | 699 ft | 113 kts | 346° |
| 2026-05-07 19:30 | 33.35873 | -7.58913 | 659 ft | 92 kts | 345° |
| 2026-05-07 19:31 | 33.36314 | -7.59064 | 656 ft | 41 kts | 344° |
| 2026-05-07 19:31 | 33.36535 | -7.59139 | 657 ft | 32 kts | 343° |
| 2026-05-07 19:31 | 33.36764 | -7.59218 | 652 ft | 36 kts | 345° |
| 2026-05-07 19:31 | 33.37005 | -7.59299 | 657 ft | 34 kts | 343° |
| 2026-05-07 19:32 | 33.37224 | -7.59316 | 654 ft | 28 kts | 11° |
| 2026-05-07 19:32 | 33.37382 | -7.59275 | 654 ft | 21 kts | 13° |
| 2026-05-07 19:32 | 33.37518 | -7.59239 | 654 ft | 15 kts | 11° |
| 2026-05-07 19:32 | 33.37596 | -7.59223 | 652 ft | 9 kts | 13° |
| 2026-05-07 19:33 | 33.37642 | -7.59210 | 652 ft | 10 kts | 15° |
| 2026-05-07 19:33 | 33.37741 | -7.59172 | 650 ft | 21 kts | 24° |
| 2026-05-07 19:33 | 33.37832 | -7.59039 | 649 ft | 14 kts | 76° |
| 2026-05-07 19:33 | 33.37837 | -7.59015 | 649 ft | 0 kts | 76° |
| 2026-05-07 19:34 | 33.37844 | -7.58983 | 649 ft | 10 kts | 76° |
| 2026-05-07 19:35 | 33.37867 | -7.58890 | 650 ft | 12 kts | 73° |
| 2026-05-07 19:35 | 33.37893 | -7.58786 | 652 ft | 14 kts | 73° |
| 2026-05-07 19:35 | 33.37911 | -7.58674 | 650 ft | 13 kts | 97° |
| 2026-05-07 19:35 | 33.37874 | -7.58602 | 650 ft | 10 kts | 126° |
| 2026-05-07 19:36 | 33.37833 | -7.58538 | 651 ft | 11 kts | 130° |
| 2026-05-07 19:36 | 33.37779 | -7.58482 | 650 ft | 7 kts | 163° |
| 2026-05-07 19:36 | 33.37731 | -7.58466 | 653 ft | 7 kts | 164° |
| 2026-05-07 19:36 | 33.37674 | -7.58447 | 651 ft | 10 kts | 166° |
| 2026-05-07 19:37 | 33.37603 | -7.58437 | 651 ft | 11 kts | 174° |
| 2026-05-07 19:37 | 33.37529 | -7.58415 | 651 ft | 12 kts | 163° |
| 2026-05-07 19:37 | 33.37448 | -7.58385 | 653 ft | 8 kts | 142° |
| 2026-05-07 19:37 | 33.37453 | -7.58369 | 651 ft | 1 kts | 42° |
| 2026-05-07 19:38 | 33.37472 | -7.58359 | 651 ft | 4 kts | 22° |
| 2026-05-07 19:38 | 33.37486 | -7.58339 | 651 ft | 3 kts | 72° |
| 2026-05-07 19:38 | 33.37495 | -7.58307 | 651 ft | 2 kts | 72° |
| 2026-05-07 19:38 | 33.37495 | -7.58306 | 651 ft | 0 kts | 72° |